This is the latest recevied weather packets stored in our database for station/object KA5FVT. If no packets are shown the sender has not sent any weather packets the latest 10 day(s).
| Time | Temp. | Humidity | Pressure | Rain* | Wind** | Luminosity | Snow |
|---|---|---|---|---|---|---|---|
| 1777241366 | 29.44° C | 72% | 1007.2 hPa | 0 mm | - | - | - |
| 1777238366 | 29.44° C | 74% | 1007.6 hPa | 0 mm | - | - | - |
| 1777234769 | 30° C | 73% | 1008 hPa | 0 mm | - | - | - |
| 1777232666 | 28.89° C | 75% | 1008.5 hPa | 0 mm | - | - | - |
| 1777231469 | 28.89° C | 75% | 1008.7 hPa | 0 mm | - | - | - |
| 1777226667 | 27.78° C | 78% | 1009.8 hPa | 0 mm | - | - | - |
| 1777226369 | 27.78° C | 78% | 1009.8 hPa | 0 mm | - | - | - |
| 1777224866 | 27.78° C | 77% | 1009.9 hPa | 0 mm | - | - | - |
| 1777223366 | 28.33° C | 75% | 1010 hPa | 0 mm | - | - | - |
| 1777222469 | 27.78° C | 75% | 1010 hPa | 0 mm | - | - | - |
| 1777220666 | 27.78° C | 77% | 1009.6 hPa | 0 mm | - | - | - |
| 1777220366 | 27.78° C | 76% | 1009.5 hPa | 0 mm | - | - | - |
| 1777217966 | 27.22° C | 79% | 1009.3 hPa | 0 mm | - | - | - |
| 1777217366 | 27.22° C | 82% | 1009.2 hPa | 0 mm | - | - | - |
| 1777215866 | 26.11° C | 84% | 1009.1 hPa | 0 mm | - | - | - |
| 1777214966 | 26.11° C | 86% | 1009 hPa | 0 mm | - | - | - |
| 1777214669 | 26.11° C | 86% | 1008.8 hPa | 0 mm | - | - | - |
| 1777214366 | 25.56° C | 86% | 1008.8 hPa | 0 mm | - | - | - |
| 1777213466 | 25.56° C | 87% | 1008.8 hPa | 0 mm | - | - | - |
| 1777211966 | 25.56° C | 88% | 1009.1 hPa | 0 mm | - | - | - |
| 1777211069 | 25° C | 89% | 1009 hPa | 0 mm | - | - | - |
| 1777210466 | 25° C | 89% | 1008.9 hPa | 0 mm | - | - | - |
| 1777208666 | 25° C | 89% | 1008.7 hPa | 0 mm | - | - | - |
| 1777206566 | 24.44° C | 89% | 1008.5 hPa | 0 mm | - | - | - |
| 1777205666 | 24.44° C | 89% | 1008.4 hPa | 0 mm | - | - | - |
* Rain latest hour (hover to see other rain measurements)
** Current wind speed in m/s (hover to see current wind gust speed)